sensor_id;sensor_type;location;lat;lon;timestamp;P1;durP1;ratioP1;P2;durP2;ratioP2
13683;SDS011;6914;53.552;9.908;2023-03-01T00:01:08;12.17;;;10.40;;
13683;SDS011;6914;53.552;9.908;2023-03-01T00:03:37;11.53;;;8.60;;
13683;SDS011;6914;53.552;9.908;2023-03-01T00:06:04;23.10;;;11.50;;
13683;SDS011;6914;53.552;9.908;2023-03-01T00:08:33;13.70;;;9.80;;
13683;SDS011;6914;53.552;9.908;2023-03-01T00:11:00;14.07;;;9.70;;
13683;SDS011;6914;53.552;9.908;2023-03-01T00:13:28;11.33;;;9.07;;
13683;SDS011;6914;53.552;9.908;2023-03-01T00:15:55;10.67;;;9.37;;
13683;SDS011;6914;53.552;9.908;2023-03-01T00:18:22;10.03;;;8.93;;
13683;SDS011;6914;53.552;9.908;2023-03-01T00:20:50;13.43;;;8.97;;
13683;SDS011;6914;53.552;9.908;2023-03-01T00:23:17;18.60;;;10.47;;
13683;SDS011;6914;53.552;9.908;2023-03-01T00:25:45;13.03;;;9.77;;
13683;SDS011;6914;53.552;9.908;2023-03-01T00:28:18;17.80;;;9.80;;
13683;SDS011;6914;53.552;9.908;2023-03-01T00:30:45;18.13;;;9.30;;
13683;SDS011;6914;53.552;9.908;2023-03-01T00:33:13;21.63;;;11.40;;
13683;SDS011;6914;53.552;9.908;2023-03-01T00:35:43;29.63;;;13.20;;
13683;SDS011;6914;53.552;9.908;2023-03-01T00:38:10;26.80;;;13.27;;
13683;SDS011;6914;53.552;9.908;2023-03-01T00:40:39;21.17;;;11.37;;
13683;SDS011;6914;53.552;9.908;2023-03-01T00:43:07;15.40;;;10.23;;
13683;SDS011;6914;53.552;9.908;2023-03-01T00:45:35;17.03;;;8.60;;
13683;SDS011;6914;53.552;9.908;2023-03-01T00:48:02;20.67;;;9.40;;
13683;SDS011;6914;53.552;9.908;2023-03-01T00:50:29;12.03;;;9.73;;
13683;SDS011;6914;53.552;9.908;2023-03-01T00:52:55;13.37;;;9.50;;
13683;SDS011;6914;53.552;9.908;2023-03-01T00:55:22;22.30;;;10.50;;
13683;SDS011;6914;53.552;9.908;2023-03-01T00:57:49;17.67;;;9.50;;
13683;SDS011;6914;53.552;9.908;2023-03-01T01:00:19;11.93;;;9.43;;
13683;SDS011;6914;53.552;9.908;2023-03-01T01:02:46;13.50;;;8.70;;
13683;SDS011;6914;53.552;9.908;2023-03-01T01:05:14;17.33;;;8.97;;
13683;SDS011;6914;53.552;9.908;2023-03-01T01:07:45;17.20;;;8.07;;
13683;SDS011;6914;53.552;9.908;2023-03-01T01:10:13;16.10;;;9.03;;
13683;SDS011;6914;53.552;9.908;2023-03-01T01:12:43;10.73;;;8.20;;
13683;SDS011;6914;53.552;9.908;2023-03-01T01:15:10;10.97;;;8.43;;
13683;SDS011;6914;53.552;9.908;2023-03-01T01:17:40;15.50;;;9.43;;
13683;SDS011;6914;53.552;9.908;2023-03-01T01:20:07;8.87;;;8.00;;
13683;SDS011;6914;53.552;9.908;2023-03-01T01:22:35;10.60;;;7.93;;
13683;SDS011;6914;53.552;9.908;2023-03-01T01:25:01;12.20;;;8.63;;
13683;SDS011;6914;53.552;9.908;2023-03-01T01:27:29;13.10;;;9.00;;
13683;SDS011;6914;53.552;9.908;2023-03-01T01:29:55;9.57;;;8.53;;
13683;SDS011;6914;53.552;9.908;2023-03-01T01:32:22;10.83;;;8.87;;
13683;SDS011;6914;53.552;9.908;2023-03-01T01:34:50;12.37;;;9.00;;
13683;SDS011;6914;53.552;9.908;2023-03-01T01:37:18;13.90;;;7.67;;
13683;SDS011;6914;53.552;9.908;2023-03-01T01:39:45;10.13;;;7.37;;
13683;SDS011;6914;53.552;9.908;2023-03-01T01:42:12;9.10;;;7.47;;
13683;SDS011;6914;53.552;9.908;2023-03-01T01:44:47;9.90;;;7.70;;
13683;SDS011;6914;53.552;9.908;2023-03-01T01:47:14;7.33;;;6.60;;
13683;SDS011;6914;53.552;9.908;2023-03-01T01:49:45;9.80;;;6.40;;
13683;SDS011;6914;53.552;9.908;2023-03-01T01:52:21;7.30;;;6.37;;
13683;SDS011;6914;53.552;9.908;2023-03-01T01:54:51;6.20;;;5.63;;
13683;SDS011;6914;53.552;9.908;2023-03-01T01:57:21;7.83;;;6.20;;
13683;SDS011;6914;53.552;9.908;2023-03-01T01:59:52;6.20;;;5.70;;
13683;SDS011;6914;53.552;9.908;2023-03-01T02:02:21;5.70;;;5.10;;
13683;SDS011;6914;53.552;9.908;2023-03-01T02:04:49;8.10;;;5.50;;
13683;SDS011;6914;53.552;9.908;2023-03-01T02:07:23;6.50;;;5.90;;
13683;SDS011;6914;53.552;9.908;2023-03-01T02:09:51;5.83;;;5.30;;
13683;SDS011;6914;53.552;9.908;2023-03-01T02:12:20;6.90;;;5.47;;
13683;SDS011;6914;53.552;9.908;2023-03-01T02:14:49;6.43;;;5.77;;
13683;SDS011;6914;53.552;9.908;2023-03-01T02:17:16;6.00;;;5.50;;
13683;SDS011;6914;53.552;9.908;2023-03-01T02:19:49;4.00;;;3.70;;
13683;SDS011;6914;53.552;9.908;2023-03-01T02:22:25;10.20;;;4.53;;
13683;SDS011;6914;53.552;9.908;2023-03-01T02:25:01;9.37;;;4.30;;
13683;SDS011;6914;53.552;9.908;2023-03-01T02:27:37;4.37;;;3.90;;
13683;SDS011;6914;53.552;9.908;2023-03-01T02:30:10;8.13;;;4.50;;
13683;SDS011;6914;53.552;9.908;2023-03-01T02:32:38;4.13;;;3.83;;
13683;SDS011;6914;53.552;9.908;2023-03-01T02:35:06;4.30;;;4.00;;
13683;SDS011;6914;53.552;9.908;2023-03-01T02:37:35;12.13;;;3.70;;
13683;SDS011;6914;53.552;9.908;2023-03-01T02:40:04;4.50;;;3.63;;
13683;SDS011;6914;53.552;9.908;2023-03-01T02:42:38;8.63;;;4.23;;
13683;SDS011;6914;53.552;9.908;2023-03-01T02:45:16;4.33;;;3.90;;
13683;SDS011;6914;53.552;9.908;2023-03-01T02:47:48;4.40;;;4.00;;
13683;SDS011;6914;53.552;9.908;2023-03-01T02:50:18;4.03;;;3.43;;
13683;SDS011;6914;53.552;9.908;2023-03-01T02:53:00;4.77;;;4.37;;
13683;SDS011;6914;53.552;9.908;2023-03-01T02:55:31;5.37;;;4.03;;
13683;SDS011;6914;53.552;9.908;2023-03-01T02:57:57;4.30;;;4.00;;
13683;SDS011;6914;53.552;9.908;2023-03-01T03:00:30;10.50;;;4.13;;
13683;SDS011;6914;53.552;9.908;2023-03-01T03:03:05;9.47;;;4.53;;
13683;SDS011;6914;53.552;9.908;2023-03-01T03:05:33;6.23;;;4.40;;
13683;SDS011;6914;53.552;9.908;2023-03-01T03:08:00;4.30;;;3.90;;
13683;SDS011;6914;53.552;9.908;2023-03-01T03:10:30;4.20;;;4.00;;
13683;SDS011;6914;53.552;9.908;2023-03-01T03:12:58;5.77;;;4.40;;
13683;SDS011;6914;53.552;9.908;2023-03-01T03:15:27;4.37;;;4.07;;
13683;SDS011;6914;53.552;9.908;2023-03-01T03:17:56;4.30;;;3.90;;
13683;SDS011;6914;53.552;9.908;2023-03-01T03:20:24;4.83;;;4.30;;
13683;SDS011;6914;53.552;9.908;2023-03-01T03:22:54;4.27;;;3.87;;
13683;SDS011;6914;53.552;9.908;2023-03-01T03:25:23;4.47;;;4.17;;
13683;SDS011;6914;53.552;9.908;2023-03-01T03:27:50;4.30;;;4.00;;
13683;SDS011;6914;53.552;9.908;2023-03-01T03:30:22;6.63;;;4.53;;
13683;SDS011;6914;53.552;9.908;2023-03-01T03:32:51;5.97;;;4.13;;
13683;SDS011;6914;53.552;9.908;2023-03-01T03:35:25;4.43;;;3.97;;
13683;SDS011;6914;53.552;9.908;2023-03-01T03:37:55;3.90;;;3.67;;
13683;SDS011;6914;53.552;9.908;2023-03-01T03:40:29;5.27;;;4.20;;
13683;SDS011;6914;53.552;9.908;2023-03-01T03:42:57;7.23;;;4.10;;
13683;SDS011;6914;53.552;9.908;2023-03-01T03:45:24;8.50;;;5.67;;
13683;SDS011;6914;53.552;9.908;2023-03-01T03:47:51;7.50;;;4.50;;
13683;SDS011;6914;53.552;9.908;2023-03-01T03:50:18;4.77;;;4.37;;
13683;SDS011;6914;53.552;9.908;2023-03-01T03:52:48;4.70;;;4.40;;
13683;SDS011;6914;53.552;9.908;2023-03-01T03:55:15;4.90;;;4.50;;
13683;SDS011;6914;53.552;9.908;2023-03-01T03:57:44;4.27;;;3.93;;
13683;SDS011;6914;53.552;9.908;2023-03-01T04:00:16;4.03;;;3.67;;
13683;SDS011;6914;53.552;9.908;2023-03-01T04:02:45;4.67;;;3.97;;
13683;SDS011;6914;53.552;9.908;2023-03-01T04:05:14;5.53;;;4.37;;
13683;SDS011;6914;53.552;9.908;2023-03-01T04:07:46;5.00;;;4.30;;
13683;SDS011;6914;53.552;9.908;2023-03-01T04:10:14;4.00;;;3.70;;
13683;SDS011;6914;53.552;9.908;2023-03-01T04:12:42;5.90;;;4.73;;
13683;SDS011;6914;53.552;9.908;2023-03-01T04:15:10;4.37;;;3.97;;
13683;SDS011;6914;53.552;9.908;2023-03-01T04:17:41;3.83;;;3.20;;
13683;SDS011;6914;53.552;9.908;2023-03-01T04:20:09;3.90;;;3.60;;
13683;SDS011;6914;53.552;9.908;2023-03-01T04:22:37;3.77;;;3.47;;
13683;SDS011;6914;53.552;9.908;2023-03-01T04:25:05;3.70;;;3.40;;
13683;SDS011;6914;53.552;9.908;2023-03-01T04:27:34;6.73;;;4.20;;
13683;SDS011;6914;53.552;9.908;2023-03-01T04:30:01;4.23;;;3.83;;
13683;SDS011;6914;53.552;9.908;2023-03-01T04:32:30;4.03;;;3.63;;
13683;SDS011;6914;53.552;9.908;2023-03-01T04:34:56;4.23;;;3.83;;
13683;SDS011;6914;53.552;9.908;2023-03-01T04:37:23;3.97;;;3.47;;
13683;SDS011;6914;53.552;9.908;2023-03-01T04:39:50;3.80;;;3.47;;
13683;SDS011;6914;53.552;9.908;2023-03-01T04:42:19;5.40;;;3.23;;
13683;SDS011;6914;53.552;9.908;2023-03-01T04:44:46;3.20;;;3.00;;
13683;SDS011;6914;53.552;9.908;2023-03-01T04:47:16;3.67;;;3.37;;
13683;SDS011;6914;53.552;9.908;2023-03-01T04:49:43;3.67;;;3.37;;
13683;SDS011;6914;53.552;9.908;2023-03-01T04:52:09;7.87;;;3.87;;
13683;SDS011;6914;53.552;9.908;2023-03-01T04:54:36;3.00;;;2.80;;
13683;SDS011;6914;53.552;9.908;2023-03-01T04:57:03;4.10;;;3.70;;
13683;SDS011;6914;53.552;9.908;2023-03-01T04:59:31;2.97;;;2.80;;
13683;SDS011;6914;53.552;9.908;2023-03-01T05:01:58;5.23;;;3.10;;
13683;SDS011;6914;53.552;9.908;2023-03-01T05:04:25;3.83;;;3.43;;
13683;SDS011;6914;53.552;9.908;2023-03-01T05:06:53;3.03;;;2.93;;
13683;SDS011;6914;53.552;9.908;2023-03-01T05:09:21;4.10;;;3.90;;
13683;SDS011;6914;53.552;9.908;2023-03-01T05:11:50;5.73;;;3.90;;
13683;SDS011;6914;53.552;9.908;2023-03-01T05:14:17;3.60;;;3.30;;
13683;SDS011;6914;53.552;9.908;2023-03-01T05:16:45;3.73;;;3.20;;
13683;SDS011;6914;53.552;9.908;2023-03-01T05:19:12;4.47;;;4.07;;
13683;SDS011;6914;53.552;9.908;2023-03-01T05:21:40;3.90;;;3.60;;
13683;SDS011;6914;53.552;9.908;2023-03-01T05:24:21;6.20;;;3.67;;
13683;SDS011;6914;53.552;9.908;2023-03-01T05:26:49;3.90;;;3.60;;
13683;SDS011;6914;53.552;9.908;2023-03-01T05:29:18;4.30;;;4.10;;
13683;SDS011;6914;53.552;9.908;2023-03-01T05:31:54;3.50;;;3.30;;
13683;SDS011;6914;53.552;9.908;2023-03-01T05:34:26;4.10;;;3.70;;
13683;SDS011;6914;53.552;9.908;2023-03-01T05:36:54;3.87;;;3.67;;
13683;SDS011;6914;53.552;9.908;2023-03-01T05:39:23;9.20;;;4.03;;
13683;SDS011;6914;53.552;9.908;2023-03-01T05:41:52;6.53;;;3.30;;
13683;SDS011;6914;53.552;9.908;2023-03-01T05:44:21;6.03;;;4.77;;
13683;SDS011;6914;53.552;9.908;2023-03-01T05:46:51;6.00;;;3.70;;
13683;SDS011;6914;53.552;9.908;2023-03-01T05:49:19;5.33;;;4.73;;
13683;SDS011;6914;53.552;9.908;2023-03-01T05:51:49;4.17;;;3.77;;
13683;SDS011;6914;53.552;9.908;2023-03-01T05:54:17;4.80;;;4.40;;
13683;SDS011;6914;53.552;9.908;2023-03-01T05:56:44;3.93;;;3.63;;
13683;SDS011;6914;53.552;9.908;2023-03-01T05:59:11;4.43;;;4.03;;
13683;SDS011;6914;53.552;9.908;2023-03-01T06:01:40;4.63;;;4.27;;
13683;SDS011;6914;53.552;9.908;2023-03-01T06:04:06;4.87;;;4.47;;
13683;SDS011;6914;53.552;9.908;2023-03-01T06:06:35;4.87;;;4.47;;
13683;SDS011;6914;53.552;9.908;2023-03-01T06:09:03;4.33;;;4.10;;
13683;SDS011;6914;53.552;9.908;2023-03-01T06:11:33;4.50;;;4.20;;
13683;SDS011;6914;53.552;9.908;2023-03-01T06:13:59;5.43;;;4.90;;
13683;SDS011;6914;53.552;9.908;2023-03-01T06:16:26;4.60;;;4.30;;
13683;SDS011;6914;53.552;9.908;2023-03-01T06:18:53;6.23;;;4.47;;
13683;SDS011;6914;53.552;9.908;2023-03-01T06:21:20;6.50;;;3.80;;
13683;SDS011;6914;53.552;9.908;2023-03-01T06:23:48;6.87;;;4.23;;
13683;SDS011;6914;53.552;9.908;2023-03-01T06:26:14;7.50;;;5.17;;
13683;SDS011;6914;53.552;9.908;2023-03-01T06:28:41;7.17;;;4.97;;
13683;SDS011;6914;53.552;9.908;2023-03-01T06:31:11;3.67;;;3.47;;
13683;SDS011;6914;53.552;9.908;2023-03-01T06:33:37;4.07;;;3.77;;
13683;SDS011;6914;53.552;9.908;2023-03-01T06:36:04;5.10;;;4.80;;
13683;SDS011;6914;53.552;9.908;2023-03-01T06:38:31;11.00;;;5.00;;
13683;SDS011;6914;53.552;9.908;2023-03-01T06:41:00;7.13;;;4.57;;
13683;SDS011;6914;53.552;9.908;2023-03-01T06:43:27;4.70;;;4.30;;
13683;SDS011;6914;53.552;9.908;2023-03-01T06:45:53;5.20;;;4.70;;
13683;SDS011;6914;53.552;9.908;2023-03-01T06:48:20;5.23;;;4.57;;
13683;SDS011;6914;53.552;9.908;2023-03-01T06:50:47;6.00;;;5.50;;
13683;SDS011;6914;53.552;9.908;2023-03-01T06:53:14;7.90;;;5.47;;
13683;SDS011;6914;53.552;9.908;2023-03-01T06:55:41;7.20;;;5.40;;
13683;SDS011;6914;53.552;9.908;2023-03-01T06:58:09;8.80;;;6.67;;
13683;SDS011;6914;53.552;9.908;2023-03-01T07:00:36;5.30;;;5.00;;
13683;SDS011;6914;53.552;9.908;2023-03-01T07:03:05;5.17;;;4.67;;
13683;SDS011;6914;53.552;9.908;2023-03-01T07:05:32;5.13;;;4.70;;
13683;SDS011;6914;53.552;9.908;2023-03-01T07:07:59;7.23;;;5.00;;
13683;SDS011;6914;53.552;9.908;2023-03-01T07:10:26;5.33;;;5.03;;
13683;SDS011;6914;53.552;9.908;2023-03-01T07:12:56;7.07;;;4.87;;
13683;SDS011;6914;53.552;9.908;2023-03-01T07:15:27;5.03;;;4.73;;
13683;SDS011;6914;53.552;9.908;2023-03-01T07:17:55;5.37;;;4.87;;
13683;SDS011;6914;53.552;9.908;2023-03-01T07:20:23;5.33;;;4.77;;
13683;SDS011;6914;53.552;9.908;2023-03-01T07:22:52;5.20;;;4.90;;
13683;SDS011;6914;53.552;9.908;2023-03-01T07:25:19;5.63;;;5.33;;
13683;SDS011;6914;53.552;9.908;2023-03-01T07:27:48;5.23;;;4.83;;
13683;SDS011;6914;53.552;9.908;2023-03-01T07:30:16;5.67;;;5.17;;
13683;SDS011;6914;53.552;9.908;2023-03-01T07:32:44;6.73;;;5.47;;
13683;SDS011;6914;53.552;9.908;2023-03-01T07:35:11;6.87;;;5.93;;
13683;SDS011;6914;53.552;9.908;2023-03-01T07:37:39;15.50;;;6.10;;
13683;SDS011;6914;53.552;9.908;2023-03-01T07:40:07;11.93;;;5.93;;
13683;SDS011;6914;53.552;9.908;2023-03-01T07:42:34;6.03;;;5.37;;
13683;SDS011;6914;53.552;9.908;2023-03-01T07:45:01;7.70;;;5.80;;
13683;SDS011;6914;53.552;9.908;2023-03-01T07:47:28;9.60;;;6.63;;
13683;SDS011;6914;53.552;9.908;2023-03-01T07:49:56;16.73;;;6.60;;
13683;SDS011;6914;53.552;9.908;2023-03-01T07:52:23;9.40;;;7.17;;
13683;SDS011;6914;53.552;9.908;2023-03-01T07:54:52;7.57;;;6.57;;
13683;SDS011;6914;53.552;9.908;2023-03-01T07:57:18;9.00;;;6.53;;
13683;SDS011;6914;53.552;9.908;2023-03-01T07:59:45;10.13;;;7.80;;
13683;SDS011;6914;53.552;9.908;2023-03-01T08:02:12;9.80;;;8.70;;
13683;SDS011;6914;53.552;9.908;2023-03-01T08:04:40;10.53;;;8.90;;
13683;SDS011;6914;53.552;9.908;2023-03-01T08:07:08;14.67;;;9.13;;
13683;SDS011;6914;53.552;9.908;2023-03-01T08:09:35;13.53;;;9.50;;
13683;SDS011;6914;53.552;9.908;2023-03-01T08:12:02;17.57;;;9.63;;
13683;SDS011;6914;53.552;9.908;2023-03-01T08:14:29;13.77;;;9.23;;
13683;SDS011;6914;53.552;9.908;2023-03-01T08:16:56;13.97;;;9.57;;
13683;SDS011;6914;53.552;9.908;2023-03-01T08:19:23;10.40;;;8.87;;
13683;SDS011;6914;53.552;9.908;2023-03-01T08:21:54;11.67;;;9.60;;
13683;SDS011;6914;53.552;9.908;2023-03-01T08:24:28;13.47;;;10.53;;
13683;SDS011;6914;53.552;9.908;2023-03-01T08:26:55;17.57;;;10.13;;
13683;SDS011;6914;53.552;9.908;2023-03-01T08:29:22;17.97;;;11.33;;
13683;SDS011;6914;53.552;9.908;2023-03-01T08:31:51;17.13;;;11.73;;
13683;SDS011;6914;53.552;9.908;2023-03-01T08:34:18;16.90;;;12.10;;
13683;SDS011;6914;53.552;9.908;2023-03-01T08:36:45;12.77;;;9.93;;
13683;SDS011;6914;53.552;9.908;2023-03-01T08:39:13;14.80;;;11.50;;
13683;SDS011;6914;53.552;9.908;2023-03-01T08:41:43;18.53;;;10.40;;
13683;SDS011;6914;53.552;9.908;2023-03-01T08:44:10;12.13;;;10.57;;
13683;SDS011;6914;53.552;9.908;2023-03-01T08:46:39;16.43;;;10.60;;
13683;SDS011;6914;53.552;9.908;2023-03-01T08:49:07;14.63;;;9.80;;
13683;SDS011;6914;53.552;9.908;2023-03-01T08:51:36;13.23;;;9.93;;
13683;SDS011;6914;53.552;9.908;2023-03-01T08:54:03;12.83;;;9.77;;
13683;SDS011;6914;53.552;9.908;2023-03-01T08:56:30;22.50;;;11.30;;
13683;SDS011;6914;53.552;9.908;2023-03-01T08:58:59;18.93;;;10.00;;
13683;SDS011;6914;53.552;9.908;2023-03-01T09:01:29;15.63;;;8.83;;
13683;SDS011;6914;53.552;9.908;2023-03-01T09:03:56;20.77;;;7.67;;
13683;SDS011;6914;53.552;9.908;2023-03-01T09:06:23;11.67;;;9.43;;
13683;SDS011;6914;53.552;9.908;2023-03-01T09:08:50;9.60;;;8.30;;
13683;SDS011;6914;53.552;9.908;2023-03-01T09:11:18;12.40;;;8.20;;
13683;SDS011;6914;53.552;9.908;2023-03-01T09:13:47;7.57;;;6.80;;
13683;SDS011;6914;53.552;9.908;2023-03-01T09:16:16;10.90;;;8.67;;
13683;SDS011;6914;53.552;9.908;2023-03-01T09:18:48;11.00;;;8.57;;
13683;SDS011;6914;53.552;9.908;2023-03-01T09:21:16;12.80;;;8.40;;
13683;SDS011;6914;53.552;9.908;2023-03-01T09:23:46;10.03;;;8.73;;
13683;SDS011;6914;53.552;9.908;2023-03-01T09:26:14;10.13;;;8.90;;
13683;SDS011;6914;53.552;9.908;2023-03-01T09:28:44;12.53;;;8.93;;
13683;SDS011;6914;53.552;9.908;2023-03-01T09:31:11;15.90;;;8.37;;
13683;SDS011;6914;53.552;9.908;2023-03-01T09:33:40;11.73;;;9.40;;
13683;SDS011;6914;53.552;9.908;2023-03-01T09:36:08;18.50;;;10.00;;
13683;SDS011;6914;53.552;9.908;2023-03-01T09:38:37;15.93;;;11.97;;
13683;SDS011;6914;53.552;9.908;2023-03-01T09:41:08;21.10;;;13.03;;
13683;SDS011;6914;53.552;9.908;2023-03-01T09:43:39;23.90;;;15.50;;
13683;SDS011;6914;53.552;9.908;2023-03-01T09:46:11;22.70;;;14.40;;
13683;SDS011;6914;53.552;9.908;2023-03-01T09:48:43;21.80;;;13.90;;
13683;SDS011;6914;53.552;9.908;2023-03-01T09:51:15;17.10;;;13.63;;
13683;SDS011;6914;53.552;9.908;2023-03-01T09:53:55;17.13;;;12.37;;
13683;SDS011;6914;53.552;9.908;2023-03-01T09:56:25;23.70;;;13.40;;
13683;SDS011;6914;53.552;9.908;2023-03-01T09:58:57;19.50;;;13.50;;
13683;SDS011;6914;53.552;9.908;2023-03-01T10:01:32;18.93;;;13.30;;
13683;SDS011;6914;53.552;9.908;2023-03-01T10:07:02;18.30;;;12.93;;
13683;SDS011;6914;53.552;9.908;2023-03-01T10:09:40;21.50;;;13.60;;
13683;SDS011;6914;53.552;9.908;2023-03-01T10:12:10;19.03;;;12.90;;
13683;SDS011;6914;53.552;9.908;2023-03-01T10:14:42;24.03;;;13.90;;
13683;SDS011;6914;53.552;9.908;2023-03-01T10:17:19;17.57;;;12.80;;
13683;SDS011;6914;53.552;9.908;2023-03-01T10:19:56;15.43;;;11.23;;
13683;SDS011;6914;53.552;9.908;2023-03-01T10:22:36;16.80;;;11.50;;
13683;SDS011;6914;53.552;9.908;2023-03-01T10:25:03;18.70;;;12.30;;
13683;SDS011;6914;53.552;9.908;2023-03-01T10:27:33;13.87;;;11.87;;
13683;SDS011;6914;53.552;9.908;2023-03-01T10:30:10;15.70;;;12.60;;
13683;SDS011;6914;53.552;9.908;2023-03-01T10:32:42;16.40;;;11.40;;
13683;SDS011;6914;53.552;9.908;2023-03-01T10:35:18;12.70;;;10.30;;
13683;SDS011;6914;53.552;9.908;2023-03-01T10:37:56;14.60;;;11.57;;
13683;SDS011;6914;53.552;9.908;2023-03-01T10:40:28;15.83;;;10.30;;
13683;SDS011;6914;53.552;9.908;2023-03-01T10:42:57;17.53;;;11.63;;
13683;SDS011;6914;53.552;9.908;2023-03-01T10:45:33;15.27;;;11.77;;
13683;SDS011;6914;53.552;9.908;2023-03-01T10:48:08;15.03;;;10.33;;
13683;SDS011;6914;53.552;9.908;2023-03-01T10:50:43;20.97;;;11.60;;
13683;SDS011;6914;53.552;9.908;2023-03-01T10:53:20;13.93;;;11.13;;
13683;SDS011;6914;53.552;9.908;2023-03-01T10:55:59;17.07;;;11.73;;
13683;SDS011;6914;53.552;9.908;2023-03-01T10:58:28;21.50;;;14.43;;
13683;SDS011;6914;53.552;9.908;2023-03-01T11:00:58;29.73;;;12.93;;
13683;SDS011;6914;53.552;9.908;2023-03-01T11:03:33;20.23;;;13.50;;
13683;SDS011;6914;53.552;9.908;2023-03-01T11:06:04;15.20;;;12.30;;
13683;SDS011;6914;53.552;9.908;2023-03-01T11:08:35;16.30;;;13.10;;
13683;SDS011;6914;53.552;9.908;2023-03-01T11:13:57;19.73;;;13.00;;
13683;SDS011;6914;53.552;9.908;2023-03-01T11:16:31;17.63;;;12.10;;
13683;SDS011;6914;53.552;9.908;2023-03-01T11:19:00;18.73;;;12.10;;
13683;SDS011;6914;53.552;9.908;2023-03-01T11:21:41;16.77;;;11.13;;
13683;SDS011;6914;53.552;9.908;2023-03-01T11:24:12;15.17;;;10.63;;
13683;SDS011;6914;53.552;9.908;2023-03-01T11:26:41;13.33;;;10.77;;
13683;SDS011;6914;53.552;9.908;2023-03-01T11:29:13;12.03;;;10.40;;
13683;SDS011;6914;53.552;9.908;2023-03-01T11:31:49;14.90;;;10.90;;
13683;SDS011;6914;53.552;9.908;2023-03-01T11:34:18;14.77;;;10.67;;
13683;SDS011;6914;53.552;9.908;2023-03-01T11:36:56;14.00;;;10.00;;
13683;SDS011;6914;53.552;9.908;2023-03-01T11:39:29;16.37;;;10.57;;
13683;SDS011;6914;53.552;9.908;2023-03-01T11:42:01;11.27;;;9.70;;
13683;SDS011;6914;53.552;9.908;2023-03-01T11:44:33;10.20;;;8.50;;
13683;SDS011;6914;53.552;9.908;2023-03-01T11:47:09;10.23;;;8.43;;
13683;SDS011;6914;53.552;9.908;2023-03-01T11:49:56;14.93;;;8.77;;
13683;SDS011;6914;53.552;9.908;2023-03-01T11:52:45;8.03;;;7.23;;
13683;SDS011;6914;53.552;9.908;2023-03-01T11:55:32;8.13;;;7.30;;
13683;SDS011;6914;53.552;9.908;2023-03-01T11:58:22;12.43;;;7.90;;
13683;SDS011;6914;53.552;9.908;2023-03-01T12:01:08;8.70;;;7.80;;
13683;SDS011;6914;53.552;9.908;2023-03-01T12:03:51;11.63;;;7.30;;
13683;SDS011;6914;53.552;9.908;2023-03-01T12:06:38;7.77;;;6.20;;
13683;SDS011;6914;53.552;9.908;2023-03-01T12:09:16;12.33;;;6.60;;
13683;SDS011;6914;53.552;9.908;2023-03-01T12:11:58;7.23;;;6.47;;
13683;SDS011;6914;53.552;9.908;2023-03-01T12:14:49;8.30;;;5.87;;
13683;SDS011;6914;53.552;9.908;2023-03-01T12:17:29;8.73;;;7.40;;
13683;SDS011;6914;53.552;9.908;2023-03-01T12:20:13;9.13;;;7.77;;
13683;SDS011;6914;53.552;9.908;2023-03-01T12:22:50;7.43;;;6.47;;
13683;SDS011;6914;53.552;9.908;2023-03-01T12:25:34;11.37;;;7.57;;
13683;SDS011;6914;53.552;9.908;2023-03-01T12:28:12;7.93;;;6.07;;
13683;SDS011;6914;53.552;9.908;2023-03-01T12:31:13;8.77;;;7.33;;
13683;SDS011;6914;53.552;9.908;2023-03-01T12:34:01;6.93;;;6.33;;
13683;SDS011;6914;53.552;9.908;2023-03-01T12:36:40;13.90;;;6.93;;
13683;SDS011;6914;53.552;9.908;2023-03-01T12:39:25;12.67;;;6.60;;
13683;SDS011;6914;53.552;9.908;2023-03-01T12:42:10;7.70;;;6.83;;
13683;SDS011;6914;53.552;9.908;2023-03-01T12:47:57;8.57;;;7.10;;
13683;SDS011;6914;53.552;9.908;2023-03-01T12:50:37;6.57;;;6.07;;
13683;SDS011;6914;53.552;9.908;2023-03-01T12:53:10;7.73;;;7.00;;
13683;SDS011;6914;53.552;9.908;2023-03-01T12:55:49;10.10;;;7.07;;
13683;SDS011;6914;53.552;9.908;2023-03-01T12:58:23;6.97;;;6.20;;
13683;SDS011;6914;53.552;9.908;2023-03-01T13:00:58;11.90;;;7.57;;
13683;SDS011;6914;53.552;9.908;2023-03-01T13:03:33;7.00;;;6.50;;
13683;SDS011;6914;53.552;9.908;2023-03-01T13:06:15;6.80;;;6.17;;
13683;SDS011;6914;53.552;9.908;2023-03-01T13:08:48;7.13;;;5.83;;
13683;SDS011;6914;53.552;9.908;2023-03-01T13:11:21;7.73;;;5.80;;
13683;SDS011;6914;53.552;9.908;2023-03-01T13:13:50;7.30;;;5.73;;
13683;SDS011;6914;53.552;9.908;2023-03-01T13:16:20;4.93;;;4.60;;
13683;SDS011;6914;53.552;9.908;2023-03-01T13:19:08;6.10;;;5.50;;
13683;SDS011;6914;53.552;9.908;2023-03-01T13:21:39;8.13;;;6.10;;
13683;SDS011;6914;53.552;9.908;2023-03-01T13:27:21;7.00;;;6.40;;
13683;SDS011;6914;53.552;9.908;2023-03-01T13:29:57;11.30;;;6.27;;
13683;SDS011;6914;53.552;9.908;2023-03-01T13:32:28;6.03;;;5.43;;
13683;SDS011;6914;53.552;9.908;2023-03-01T13:35:03;6.50;;;5.80;;
13683;SDS011;6914;53.552;9.908;2023-03-01T13:41:11;7.10;;;6.47;;
13683;SDS011;6914;53.552;9.908;2023-03-01T13:43:40;6.50;;;5.90;;
13683;SDS011;6914;53.552;9.908;2023-03-01T13:46:14;4.30;;;4.00;;
13683;SDS011;6914;53.552;9.908;2023-03-01T13:48:43;9.17;;;6.70;;
13683;SDS011;6914;53.552;9.908;2023-03-01T13:51:15;6.90;;;6.30;;
13683;SDS011;6914;53.552;9.908;2023-03-01T13:53:42;6.40;;;5.70;;
13683;SDS011;6914;53.552;9.908;2023-03-01T13:56:13;9.30;;;5.83;;
13683;SDS011;6914;53.552;9.908;2023-03-01T13:58:49;10.53;;;6.90;;
13683;SDS011;6914;53.552;9.908;2023-03-01T14:01:23;6.60;;;6.00;;
13683;SDS011;6914;53.552;9.908;2023-03-01T14:03:52;11.53;;;6.40;;
13683;SDS011;6914;53.552;9.908;2023-03-01T14:06:22;9.23;;;7.17;;
13683;SDS011;6914;53.552;9.908;2023-03-01T14:08:51;10.13;;;6.97;;
13683;SDS011;6914;53.552;9.908;2023-03-01T14:11:37;9.83;;;7.77;;
13683;SDS011;6914;53.552;9.908;2023-03-01T14:14:31;11.90;;;7.13;;
13683;SDS011;6914;53.552;9.908;2023-03-01T14:17:10;8.60;;;7.00;;
13683;SDS011;6914;53.552;9.908;2023-03-01T14:19:59;8.50;;;7.43;;
13683;SDS011;6914;53.552;9.908;2023-03-01T14:22:34;7.50;;;6.80;;
13683;SDS011;6914;53.552;9.908;2023-03-01T14:25:02;18.10;;;6.80;;
13683;SDS011;6914;53.552;9.908;2023-03-01T14:27:33;9.80;;;6.63;;
13683;SDS011;6914;53.552;9.908;2023-03-01T14:30:10;6.90;;;6.20;;
13683;SDS011;6914;53.552;9.908;2023-03-01T14:32:40;12.10;;;8.17;;
13683;SDS011;6914;53.552;9.908;2023-03-01T14:35:18;8.17;;;6.50;;
13683;SDS011;6914;53.552;9.908;2023-03-01T14:37:48;7.00;;;6.40;;
13683;SDS011;6914;53.552;9.908;2023-03-01T14:40:20;8.90;;;6.53;;
13683;SDS011;6914;53.552;9.908;2023-03-01T14:42:51;6.90;;;5.80;;
13683;SDS011;6914;53.552;9.908;2023-03-01T14:45:20;5.53;;;5.03;;
13683;SDS011;6914;53.552;9.908;2023-03-01T14:47:47;8.70;;;6.13;;
13683;SDS011;6914;53.552;9.908;2023-03-01T14:50:18;8.67;;;6.20;;
13683;SDS011;6914;53.552;9.908;2023-03-01T14:52:51;8.27;;;5.80;;
13683;SDS011;6914;53.552;9.908;2023-03-01T14:55:21;5.53;;;4.93;;
13683;SDS011;6914;53.552;9.908;2023-03-01T14:57:51;7.83;;;6.77;;
13683;SDS011;6914;53.552;9.908;2023-03-01T15:00:20;14.93;;;6.00;;
13683;SDS011;6914;53.552;9.908;2023-03-01T15:02:49;7.13;;;6.43;;
13683;SDS011;6914;53.552;9.908;2023-03-01T15:05:18;15.40;;;6.93;;
13683;SDS011;6914;53.552;9.908;2023-03-01T15:07:53;9.50;;;6.93;;
13683;SDS011;6914;53.552;9.908;2023-03-01T15:10:21;6.93;;;6.30;;
13683;SDS011;6914;53.552;9.908;2023-03-01T15:12:50;6.97;;;6.37;;
13683;SDS011;6914;53.552;9.908;2023-03-01T15:15:23;8.27;;;7.30;;
13683;SDS011;6914;53.552;9.908;2023-03-01T15:18:02;7.60;;;6.87;;
13683;SDS011;6914;53.552;9.908;2023-03-01T15:20:32;9.50;;;7.40;;
13683;SDS011;6914;53.552;9.908;2023-03-01T15:23:04;9.27;;;6.97;;
13683;SDS011;6914;53.552;9.908;2023-03-01T15:25:35;8.00;;;6.80;;
13683;SDS011;6914;53.552;9.908;2023-03-01T15:28:03;9.77;;;7.50;;
13683;SDS011;6914;53.552;9.908;2023-03-01T15:30:31;11.07;;;7.50;;